createdAt,value
2023-03-25T00:01:47.626Z,98978.19
2023-03-25T00:04:17.639Z,98987.84
2023-03-25T00:06:45.895Z,98984.38
2023-03-25T00:09:14.003Z,98980.00
2023-03-25T00:11:41.729Z,98977.06
2023-03-25T00:14:09.194Z,98975.88
2023-03-25T00:16:37.011Z,98985.31
2023-03-25T00:19:04.794Z,98982.34
2023-03-25T00:21:33.523Z,98988.94
2023-03-25T00:24:02.229Z,98988.84
2023-03-25T00:26:30.132Z,98988.78
2023-03-25T00:28:57.547Z,98984.41
2023-03-25T00:31:25.017Z,98986.66
2023-03-25T00:33:52.778Z,98988.72
2023-03-25T00:36:20.313Z,98985.41
2023-03-25T00:38:49.147Z,98986.13
2023-03-25T00:41:23.338Z,98984.00
2023-03-25T00:43:58.403Z,98985.41
2023-03-25T00:46:28.123Z,98990.91
2023-03-25T00:48:56.415Z,98989.44
2023-03-25T00:51:25.838Z,98985.16
2023-03-25T00:53:56.099Z,98990.13
2023-03-25T00:56:24.358Z,98990.78
2023-03-25T00:58:51.947Z,98995.31
2023-03-25T01:01:27.259Z,98998.06
2023-03-25T01:03:59.216Z,98993.53
2023-03-25T01:06:30.080Z,98994.69
2023-03-25T01:08:58.003Z,98987.97
2023-03-25T01:11:27.978Z,98996.72
2023-03-25T01:13:56.545Z,98997.13
2023-03-25T01:16:23.944Z,98998.97
2023-03-25T01:18:51.596Z,98999.19
2023-03-25T01:21:19.267Z,98995.69
2023-03-25T01:23:46.906Z,99000.41
2023-03-25T01:26:14.360Z,99009.41
2023-03-25T01:28:43.716Z,99005.94
2023-03-25T01:31:13.488Z,99014.00
2023-03-25T01:33:41.265Z,99012.78
2023-03-25T01:36:13.008Z,99021.47
2023-03-25T01:38:41.272Z,99030.91
2023-03-25T01:41:10.286Z,99030.12
2023-03-25T01:43:37.772Z,99024.00
2023-03-25T01:46:05.427Z,99019.34
2023-03-25T01:48:38.316Z,99030.06
2023-03-25T01:51:09.394Z,99025.16
2023-03-25T01:53:37.392Z,99024.87
2023-03-25T01:56:06.882Z,99036.56
2023-03-25T01:58:35.935Z,99026.78
2023-03-25T02:01:04.404Z,99032.13
2023-03-25T02:03:37.126Z,99038.69
2023-03-25T02:06:09.315Z,99036.62
2023-03-25T02:08:39.728Z,99040.25
2023-03-25T02:11:09.609Z,99033.41
2023-03-25T02:13:39.785Z,99033.56
2023-03-25T02:17:05.868Z,99032.03
2023-03-25T02:19:52.117Z,99027.97
2023-03-25T02:22:25.896Z,99028.28
2023-03-25T02:25:21.098Z,99042.47
2023-03-25T02:28:01.382Z,99029.06
2023-03-25T02:33:31.845Z,99015.91
2023-03-25T02:36:33.475Z,99012.13
2023-03-25T02:39:23.597Z,99012.09
2023-03-25T02:42:24.278Z,99002.28
2023-03-25T02:45:09.467Z,99011.94
2023-03-25T02:47:43.660Z,99013.25
2023-03-25T02:50:16.073Z,99010.00
2023-03-25T02:52:47.473Z,99009.56
2023-03-25T02:55:16.788Z,99002.87
2023-03-25T02:57:47.556Z,99006.31
2023-03-25T03:00:18.226Z,99017.56
2023-03-25T03:02:59.682Z,99018.66
2023-03-25T03:05:50.710Z,99018.41
2023-03-25T03:08:36.661Z,99019.88
2023-03-25T03:11:33.281Z,99024.03
2023-03-25T03:14:20.390Z,99014.38
2023-03-25T03:17:00.661Z,99021.88
2023-03-25T03:19:38.118Z,99029.47
2023-03-25T03:22:08.606Z,99029.09
2023-03-25T03:24:42.173Z,99018.06
2023-03-25T03:27:15.025Z,99033.25
2023-03-25T03:29:48.873Z,99029.69
2023-03-25T03:32:42.050Z,99036.03
2023-03-25T03:35:16.037Z,99033.00
2023-03-25T03:37:47.615Z,99034.19
2023-03-25T03:40:20.568Z,99037.31
2023-03-25T03:42:58.400Z,99049.00
2023-03-25T03:45:45.607Z,99046.97
2023-03-25T03:48:18.846Z,99046.13
2023-03-25T03:50:52.042Z,99059.00
2023-03-25T03:53:49.567Z,99057.91
2023-03-25T03:56:25.048Z,99055.53
2023-03-25T03:58:54.515Z,99061.66
2023-03-25T04:01:45.981Z,99067.88
2023-03-25T04:04:20.190Z,99071.34
2023-03-25T04:06:59.807Z,99067.88
2023-03-25T04:09:33.850Z,99074.06
2023-03-25T04:12:06.276Z,99076.50
2023-03-25T04:14:34.067Z,99072.06
2023-03-25T04:17:01.466Z,99075.75
2023-03-25T04:19:28.925Z,99083.19
2023-03-25T04:21:56.607Z,99088.09
2023-03-25T04:24:25.201Z,99093.06
2023-03-25T04:26:53.167Z,99088.72
2023-03-25T04:29:20.870Z,99094.72
2023-03-25T04:31:50.486Z,99088.59
2023-03-25T04:34:20.507Z,99091.41
2023-03-25T04:36:50.309Z,99095.56
2023-03-25T04:39:17.889Z,99095.56
2023-03-25T04:41:45.363Z,99101.78
2023-03-25T04:44:13.115Z,99098.12
2023-03-25T04:46:41.316Z,99105.84
2023-03-25T04:49:21.329Z,99106.47
2023-03-25T04:51:51.547Z,99115.25
2023-03-25T04:54:19.870Z,99115.94
2023-03-25T04:56:49.605Z,99118.53
2023-03-25T04:59:18.757Z,99121.56
2023-03-25T05:01:46.263Z,99124.37
2023-03-25T05:04:17.448Z,99125.22
2023-03-25T05:06:47.165Z,99131.78
2023-03-25T05:09:19.271Z,99131.09
2023-03-25T05:11:47.658Z,99136.47
2023-03-25T05:14:17.872Z,99141.03
2023-03-25T05:16:46.155Z,99142.28
2023-03-25T05:19:15.176Z,99143.91
2023-03-25T05:21:43.292Z,99147.19
2023-03-25T05:24:13.423Z,99151.72
2023-03-25T05:26:42.403Z,99155.53
2023-03-25T05:29:15.270Z,99154.22
2023-03-25T05:31:45.759Z,99140.16
2023-03-25T05:34:14.685Z,99143.38
2023-03-25T05:36:42.722Z,99149.78
2023-03-25T05:39:10.998Z,99150.56
2023-03-25T05:41:41.610Z,99141.09
2023-03-25T05:44:10.304Z,99136.72
2023-03-25T05:46:37.987Z,99141.41
2023-03-25T05:49:05.433Z,99149.16
2023-03-25T05:51:37.406Z,99147.47
2023-03-25T05:54:10.984Z,99155.81
2023-03-25T05:56:39.620Z,99148.66
2023-03-25T05:59:08.398Z,99148.50
2023-03-25T06:01:41.839Z,99159.78
2023-03-25T06:04:10.365Z,99159.94
2023-03-25T06:06:37.977Z,99163.81
2023-03-25T06:09:06.063Z,99169.75
2023-03-25T06:11:42.956Z,99172.13
2023-03-25T06:14:10.361Z,99173.75
2023-03-25T06:16:38.090Z,99167.72
2023-03-25T06:19:06.104Z,99164.44
2023-03-25T06:21:34.419Z,99164.03
2023-03-25T06:24:02.460Z,99166.97
2023-03-25T06:26:30.486Z,99164.44
2023-03-25T06:28:58.676Z,99170.53
2023-03-25T06:31:27.297Z,99173.53
2023-03-25T06:33:56.780Z,99169.66
2023-03-25T06:36:25.678Z,99181.06
2023-03-25T06:38:54.112Z,99171.81
2023-03-25T06:41:21.735Z,99172.00
2023-03-25T06:43:49.708Z,99177.97
2023-03-25T06:46:18.659Z,99188.44
2023-03-25T06:48:47.510Z,99180.81
2023-03-25T06:51:15.374Z,99186.00
2023-03-25T06:53:43.122Z,99187.94
2023-03-25T06:56:10.790Z,99184.75
2023-03-25T06:58:39.134Z,99179.38
2023-03-25T07:01:07.879Z,99181.44
2023-03-25T07:03:36.646Z,99189.53
2023-03-25T07:06:05.828Z,99183.06
2023-03-25T07:08:34.109Z,99188.31
2023-03-25T07:11:02.938Z,99181.00
2023-03-25T07:13:31.268Z,99187.06
2023-03-25T07:16:00.204Z,99176.59
2023-03-25T07:18:27.917Z,99204.44
2023-03-25T07:20:55.287Z,99191.16
2023-03-25T07:23:22.983Z,99202.38
2023-03-25T07:25:50.881Z,99200.56
2023-03-25T07:28:19.352Z,99200.19
2023-03-25T07:30:47.360Z,99207.53
2023-03-25T07:33:15.362Z,99216.13
2023-03-25T07:35:42.774Z,99211.91
2023-03-25T07:38:10.900Z,99211.03
2023-03-25T07:40:38.544Z,99198.91
2023-03-25T07:43:06.180Z,99197.25
2023-03-25T07:45:44.125Z,99199.31
2023-03-25T07:48:14.354Z,99200.41
2023-03-25T07:50:42.917Z,99203.03
2023-03-25T07:53:10.596Z,99202.72
2023-03-25T07:55:38.148Z,99194.78
2023-03-25T07:58:05.770Z,99194.09
2023-03-25T08:00:33.450Z,99192.75
2023-03-25T08:03:01.330Z,99199.72
2023-03-25T08:05:29.834Z,99204.50
2023-03-25T08:08:00.282Z,99209.50
2023-03-25T08:10:28.011Z,99205.72
2023-03-25T08:12:55.511Z,99197.91
2023-03-25T08:15:24.794Z,99206.81
2023-03-25T08:17:52.636Z,99205.38
2023-03-25T08:20:20.696Z,99201.88
2023-03-25T08:22:48.069Z,99197.75
2023-03-25T08:25:15.821Z,99193.22
2023-03-25T08:27:43.285Z,99196.81
2023-03-25T08:30:12.207Z,99193.56
2023-03-25T08:32:40.429Z,99192.66
2023-03-25T08:35:08.293Z,99184.06
2023-03-25T08:37:37.819Z,99184.25
2023-03-25T08:40:09.356Z,99188.31
2023-03-25T08:42:37.749Z,99170.47
2023-03-25T08:45:06.269Z,99176.59
2023-03-25T08:47:34.108Z,99171.94
2023-03-25T08:50:01.656Z,99171.38
2023-03-25T08:52:29.077Z,99175.44
2023-03-25T08:54:56.921Z,99185.28
2023-03-25T08:57:24.267Z,99182.94
2023-03-25T08:59:51.663Z,99183.53
2023-03-25T09:02:19.356Z,99176.97
2023-03-25T09:04:48.916Z,99168.91
2023-03-25T09:07:19.863Z,99167.44
2023-03-25T09:09:47.609Z,99176.84
2023-03-25T09:12:15.315Z,99181.00
2023-03-25T09:14:42.971Z,99182.12
2023-03-25T09:17:10.827Z,99180.22
2023-03-25T09:19:38.354Z,99188.34
2023-03-25T09:22:06.674Z,99183.94
2023-03-25T09:24:35.760Z,99192.87
2023-03-25T09:27:03.820Z,99189.72
2023-03-25T09:29:31.181Z,99180.97
2023-03-25T09:31:59.666Z,99187.84
2023-03-25T09:34:28.062Z,99180.16
2023-03-25T09:36:55.892Z,99177.78
2023-03-25T09:39:23.924Z,99175.25
2023-03-25T09:42:27.677Z,99176.72
2023-03-25T09:45:12.055Z,99182.47
2023-03-25T09:47:42.381Z,99185.00
2023-03-25T09:50:13.404Z,99177.31
2023-03-25T09:53:09.673Z,99182.47
2023-03-25T09:55:41.570Z,99184.91
2023-03-25T09:58:35.925Z,99189.38
2023-03-25T10:01:17.603Z,99186.84
2023-03-25T10:03:57.244Z,99192.87
2023-03-25T10:06:26.416Z,99183.44
2023-03-25T10:09:31.279Z,99185.41
2023-03-25T10:12:20.726Z,99194.03
2023-03-25T10:15:16.811Z,99197.66
2023-03-25T10:18:05.380Z,99192.28
2023-03-25T10:20:35.900Z,99187.84
2023-03-25T10:23:22.045Z,99198.69
2023-03-25T10:25:55.881Z,99180.50
2023-03-25T10:28:28.714Z,99174.66
2023-03-25T10:30:56.790Z,99178.34
2023-03-25T10:33:37.226Z,99173.81
2023-03-25T10:36:08.039Z,99171.22
2023-03-25T10:38:38.061Z,99181.91
2023-03-25T10:41:30.939Z,99169.72
2023-03-25T10:43:58.306Z,99179.53
2023-03-25T10:46:34.047Z,99172.94
2023-03-25T10:49:01.877Z,99191.28
2023-03-25T10:51:32.008Z,99188.75
2023-03-25T10:53:59.684Z,99188.59
2023-03-25T10:56:34.148Z,99188.88
2023-03-25T10:59:07.216Z,99190.81
2023-03-25T11:01:41.154Z,99181.69
2023-03-25T11:04:13.913Z,99182.59
2023-03-25T11:06:45.920Z,99192.16
2023-03-25T11:09:30.375Z,99185.41
2023-03-25T11:12:02.572Z,99190.44
2023-03-25T11:14:30.630Z,99187.44
2023-03-25T11:17:02.806Z,99186.16
2023-03-25T11:19:40.375Z,99193.87
2023-03-25T11:22:24.927Z,99184.75
2023-03-25T11:24:58.884Z,99194.94
2023-03-25T11:27:31.340Z,99208.69
2023-03-25T11:30:05.692Z,99212.12
2023-03-25T11:32:40.429Z,99214.44
2023-03-25T11:35:22.491Z,99198.75
2023-03-25T11:37:56.937Z,99207.91
2023-03-25T11:40:25.574Z,99203.84
2023-03-25T11:42:55.304Z,99220.03
2023-03-25T11:45:35.750Z,99212.03
2023-03-25T11:48:30.648Z,99206.53
2023-03-25T11:51:00.202Z,99202.97
2023-03-25T11:53:31.254Z,99201.66
2023-03-25T11:56:07.105Z,99196.03
2023-03-25T11:58:37.122Z,99199.53
2023-03-25T12:01:07.376Z,99188.41
2023-03-25T12:03:36.006Z,99196.31
2023-03-25T12:06:12.543Z,99200.81
2023-03-25T12:08:49.149Z,99193.22
2023-03-25T12:11:32.762Z,99190.38
2023-03-25T12:14:42.476Z,99191.50
2023-03-25T12:17:19.109Z,99187.75
2023-03-25T12:20:02.285Z,99183.78
2023-03-25T12:22:55.550Z,99180.41
2023-03-25T12:25:53.641Z,99171.56
2023-03-25T12:28:51.777Z,99174.81
2023-03-25T12:31:31.610Z,99153.22
2023-03-25T12:34:17.766Z,99153.09
2023-03-25T12:36:57.332Z,99148.31
2023-03-25T12:39:44.802Z,99154.78
2023-03-25T12:42:27.714Z,99147.81
2023-03-25T12:45:07.174Z,99147.97
2023-03-25T12:47:38.775Z,99126.56
2023-03-25T12:50:27.568Z,99141.06
2023-03-25T12:52:57.856Z,99136.06
2023-03-25T12:55:57.733Z,99131.53
2023-03-25T12:58:43.705Z,99132.06
2023-03-25T13:01:49.773Z,99132.19
2023-03-25T13:04:57.152Z,99133.03
2023-03-25T13:07:28.840Z,99133.22
2023-03-25T13:10:15.746Z,99130.00
2023-03-25T13:13:19.858Z,99137.88
2023-03-25T13:15:53.326Z,99142.81
2023-03-25T13:18:42.801Z,99138.00
2023-03-25T13:21:18.095Z,99129.72
2023-03-25T13:23:51.891Z,99128.75
2023-03-25T13:26:23.165Z,99145.41
2023-03-25T13:29:01.774Z,99129.03
2023-03-25T13:31:35.378Z,99127.31
2023-03-25T13:34:19.920Z,99124.69
2023-03-25T13:37:23.371Z,99122.38
2023-03-25T13:40:28.907Z,99131.50
2023-03-25T13:43:07.198Z,99131.25
2023-03-25T13:45:55.325Z,99126.44
2023-03-25T13:48:32.126Z,99123.16
2023-03-25T13:51:03.224Z,99134.84
2023-03-25T13:53:51.821Z,99122.06
2023-03-25T13:56:28.051Z,99134.84
2023-03-25T13:59:02.035Z,99141.16
2023-03-25T14:01:38.505Z,99136.03
2023-03-25T14:04:06.141Z,99129.66
2023-03-25T14:07:03.409Z,99141.22
2023-03-25T14:09:59.034Z,99142.19
2023-03-25T14:12:27.819Z,99135.56
2023-03-25T14:15:07.452Z,99132.47
2023-03-25T14:17:36.195Z,99138.69
2023-03-25T14:20:08.442Z,99134.28
2023-03-25T14:22:43.846Z,99129.00
2023-03-25T14:25:32.417Z,99129.41
2023-03-25T14:28:00.089Z,99119.97
2023-03-25T14:30:28.772Z,99126.00
2023-03-25T14:32:56.895Z,99121.25
2023-03-25T14:35:33.777Z,99114.03
2023-03-25T14:38:11.717Z,99125.88
2023-03-25T14:40:44.892Z,99121.38
2023-03-25T14:43:34.435Z,99118.47
2023-03-25T14:46:11.245Z,99125.81
2023-03-25T14:48:52.432Z,99113.78
2023-03-25T14:51:26.486Z,99120.31
2023-03-25T14:53:59.744Z,99115.06
2023-03-25T14:56:34.557Z,99110.75
2023-03-25T14:59:27.147Z,99116.00
2023-03-25T15:02:00.987Z,99109.87
2023-03-25T15:04:39.125Z,99112.91
2023-03-25T15:07:11.500Z,99111.09
2023-03-25T15:10:06.005Z,99114.91
2023-03-25T15:12:37.442Z,99127.03
2023-03-25T15:15:26.833Z,99122.88
2023-03-25T15:17:54.413Z,99128.12
2023-03-25T15:20:22.127Z,99130.09
2023-03-25T15:23:27.070Z,99134.69
2023-03-25T15:25:56.014Z,99132.28
2023-03-25T15:28:42.486Z,99135.00
2023-03-25T15:31:25.682Z,99130.06
2023-03-25T15:34:08.359Z,99131.25
2023-03-25T15:37:16.892Z,99132.84
2023-03-25T15:40:09.892Z,99129.12
2023-03-25T15:42:43.373Z,99124.84
2023-03-25T15:45:33.678Z,99122.66
2023-03-25T15:48:38.636Z,99119.72
2023-03-25T15:51:47.350Z,99124.69
2023-03-25T15:54:29.026Z,99118.31
2023-03-25T15:57:33.645Z,99114.81
2023-03-25T16:00:16.130Z,99122.34
2023-03-25T16:02:51.427Z,99108.56
2023-03-25T16:05:19.396Z,99112.25
2023-03-25T16:07:47.442Z,99110.16
2023-03-25T16:10:39.600Z,99112.44
2023-03-25T16:13:16.720Z,99111.53
2023-03-25T16:15:44.750Z,99108.56
2023-03-25T16:18:14.500Z,99105.53
2023-03-25T16:20:41.945Z,99109.91
2023-03-25T16:23:17.374Z,99111.84
2023-03-25T16:25:48.793Z,99113.81
2023-03-25T16:28:27.467Z,99113.94
2023-03-25T16:30:56.150Z,99118.72
2023-03-25T16:33:41.103Z,99121.56
2023-03-25T16:36:15.622Z,99124.91
2023-03-25T16:38:43.680Z,99130.25
2023-03-25T16:41:13.625Z,99126.81
2023-03-25T16:43:41.602Z,99124.41
2023-03-25T16:46:10.631Z,99128.78
2023-03-25T16:48:42.865Z,99141.25
2023-03-25T16:51:22.721Z,99140.84
2023-03-25T16:53:53.650Z,99143.97
2023-03-25T16:56:23.695Z,99142.88
2023-03-25T16:59:01.918Z,99141.53
2023-03-25T17:01:33.389Z,99137.22
2023-03-25T17:04:41.748Z,99134.06
2023-03-25T17:07:33.602Z,99140.41
2023-03-25T17:10:02.071Z,99136.69
2023-03-25T17:12:29.541Z,99137.97
2023-03-25T17:15:04.330Z,99135.94
2023-03-25T17:17:47.116Z,99139.63
2023-03-25T17:20:21.024Z,99143.84
2023-03-25T17:22:59.472Z,99146.28
2023-03-25T17:25:32.248Z,99145.50
2023-03-25T17:28:21.107Z,99146.63
2023-03-25T17:30:48.922Z,99143.56
2023-03-25T17:33:30.171Z,99141.84
2023-03-25T17:35:57.721Z,99144.25
2023-03-25T17:38:34.017Z,99148.59
2023-03-25T17:41:06.728Z,99150.16
2023-03-25T17:43:37.388Z,99152.28
2023-03-25T17:46:06.026Z,99152.16
2023-03-25T17:48:34.209Z,99157.59
2023-03-25T17:51:01.757Z,99157.69
2023-03-25T17:53:29.291Z,99168.41
2023-03-25T17:55:59.115Z,99168.69
2023-03-25T17:58:26.682Z,99167.22
2023-03-25T18:00:54.516Z,99164.28
2023-03-25T18:03:23.910Z,99178.53
2023-03-25T18:05:54.032Z,99187.06
2023-03-25T18:08:23.762Z,99185.84
2023-03-25T18:10:53.098Z,99193.91
2023-03-25T18:13:23.727Z,99191.34
2023-03-25T18:15:52.970Z,99198.66
2023-03-25T18:18:24.304Z,99203.53
2023-03-25T18:20:53.910Z,99203.09
2023-03-25T18:23:22.368Z,99207.50
2023-03-25T18:25:49.966Z,99209.16
2023-03-25T18:28:18.127Z,99213.06
2023-03-25T18:30:50.954Z,99207.03
2023-03-25T18:33:18.960Z,99220.34
2023-03-25T18:35:46.938Z,99212.22
2023-03-25T18:38:20.113Z,99214.34
2023-03-25T18:40:48.946Z,99218.72
2023-03-25T18:43:17.433Z,99227.78
2023-03-25T18:45:46.040Z,99227.28
2023-03-25T18:48:21.213Z,99231.66
2023-03-25T18:50:54.750Z,99228.03
2023-03-25T18:53:25.116Z,99241.94
2023-03-25T18:55:54.551Z,99251.53
2023-03-25T18:58:24.540Z,99256.38
2023-03-25T19:00:53.452Z,99252.19
2023-03-25T19:03:40.766Z,99263.22
2023-03-25T19:06:11.484Z,99265.03
2023-03-25T19:08:40.027Z,99260.88
2023-03-25T19:11:18.925Z,99264.56
2023-03-25T19:13:47.055Z,99271.25
2023-03-25T19:16:14.806Z,99281.16
2023-03-25T19:18:42.219Z,99269.87
2023-03-25T19:21:10.576Z,99274.25
2023-03-25T19:23:38.238Z,99279.19
2023-03-25T19:26:05.853Z,99283.47
2023-03-25T19:28:33.245Z,99287.94
2023-03-25T19:31:01.500Z,99280.09
2023-03-25T19:33:31.217Z,99295.25
2023-03-25T19:36:01.710Z,99301.63
2023-03-25T19:38:32.701Z,99295.25
2023-03-25T19:41:03.564Z,99299.59
2023-03-25T19:43:31.311Z,99301.50
2023-03-25T19:45:59.332Z,99292.22
2023-03-25T19:48:26.855Z,99303.28
2023-03-25T19:50:55.273Z,99304.34
2023-03-25T19:53:23.612Z,99316.78
2023-03-25T19:55:51.818Z,99307.09
2023-03-25T19:58:21.581Z,99312.28
2023-03-25T20:00:49.020Z,99326.66
2023-03-25T20:03:16.924Z,99337.09
2023-03-25T20:05:44.411Z,99323.31
2023-03-25T20:08:12.481Z,99319.00
2023-03-25T20:10:41.337Z,99300.19
2023-03-25T20:13:10.009Z,99301.94
2023-03-25T20:15:37.762Z,99291.66
2023-03-25T20:18:06.732Z,99294.97
2023-03-25T20:20:34.286Z,99299.87
2023-03-25T20:23:02.229Z,99300.91
2023-03-25T20:25:29.975Z,99299.13
2023-03-25T20:27:57.504Z,99295.47
2023-03-25T20:30:25.604Z,99301.38
2023-03-25T20:32:53.324Z,99302.47
2023-03-25T20:35:21.236Z,99308.53
2023-03-25T20:37:49.281Z,99293.41
2023-03-25T20:40:18.307Z,99303.44
2023-03-25T20:42:47.090Z,99326.78
2023-03-25T20:45:16.469Z,99332.84
2023-03-25T20:47:44.538Z,99333.22
2023-03-25T20:50:14.711Z,99332.28
2023-03-25T20:52:42.282Z,99325.16
2023-03-25T20:55:10.138Z,99328.63
2023-03-25T20:57:38.282Z,99331.34
2023-03-25T21:00:06.620Z,99341.84
2023-03-25T21:02:34.778Z,99335.84
2023-03-25T21:05:03.579Z,99336.56
2023-03-25T21:07:32.347Z,99334.81
2023-03-25T21:10:00.082Z,99335.47
2023-03-25T21:12:40.445Z,99337.00
2023-03-25T21:15:12.130Z,99338.19
2023-03-25T21:17:39.829Z,99340.88
2023-03-25T21:20:08.049Z,99343.53
2023-03-25T21:22:42.542Z,99339.69
2023-03-25T21:25:11.049Z,99340.03
2023-03-25T21:27:39.811Z,99337.56
2023-03-25T21:30:11.915Z,99341.00
2023-03-25T21:32:39.857Z,99348.47
2023-03-25T21:35:08.979Z,99355.28
2023-03-25T21:37:38.721Z,99348.31
2023-03-25T21:40:10.111Z,99348.31
2023-03-25T21:42:38.744Z,99344.28
2023-03-25T21:45:08.384Z,99341.59
2023-03-25T21:47:36.518Z,99356.34
2023-03-25T21:50:09.374Z,99345.81
2023-03-25T21:52:43.364Z,99347.81
2023-03-25T21:55:11.228Z,99329.75
2023-03-25T21:57:39.562Z,99342.94
2023-03-25T22:00:08.504Z,99337.25
2023-03-25T22:02:39.143Z,99337.66
2023-03-25T22:05:07.511Z,99339.16
2023-03-25T22:07:34.961Z,99341.16
2023-03-25T22:10:02.420Z,99342.16
2023-03-25T22:12:30.174Z,99354.59
2023-03-25T22:14:58.245Z,99353.34
2023-03-25T22:17:25.994Z,99343.13
2023-03-25T22:19:54.183Z,99353.72
2023-03-25T22:22:21.740Z,99360.81
2023-03-25T22:24:49.533Z,99357.44
2023-03-25T22:27:17.500Z,99337.69
2023-03-25T22:29:44.912Z,99341.69
2023-03-25T22:32:12.273Z,99344.31
2023-03-25T22:34:40.197Z,99352.56
2023-03-25T22:37:07.616Z,99351.72
2023-03-25T22:39:35.148Z,99347.03
2023-03-25T22:42:03.002Z,99355.38
2023-03-25T22:44:30.439Z,99365.06
2023-03-25T22:46:57.857Z,99352.41
2023-03-25T22:49:25.583Z,99364.06
2023-03-25T22:51:54.108Z,99362.22
2023-03-25T22:54:21.925Z,99353.22
2023-03-25T22:56:49.617Z,99354.78
2023-03-25T22:59:17.061Z,99361.88
2023-03-25T23:01:44.570Z,99371.19
2023-03-25T23:04:12.326Z,99370.13
2023-03-25T23:06:41.604Z,99369.47
2023-03-25T23:09:10.217Z,99375.34
2023-03-25T23:11:38.732Z,99376.56
2023-03-25T23:14:09.230Z,99385.44
2023-03-25T23:16:36.950Z,99391.66
2023-03-25T23:19:06.262Z,99385.25
2023-03-25T23:21:34.052Z,99398.53
2023-03-25T23:24:03.748Z,99396.81
2023-03-25T23:26:38.798Z,99391.66
2023-03-25T23:29:08.819Z,99390.06
2023-03-25T23:31:37.948Z,99383.78
2023-03-25T23:34:07.249Z,99397.00
2023-03-25T23:36:36.816Z,99399.78
2023-03-25T23:39:07.199Z,99400.56
2023-03-25T23:41:35.008Z,99398.91
2023-03-25T23:44:03.498Z,99399.78
2023-03-25T23:46:31.713Z,99401.66
2023-03-25T23:49:05.741Z,99396.38
2023-03-25T23:51:36.459Z,99395.16
2023-03-25T23:54:05.955Z,99394.53
2023-03-25T23:56:33.687Z,99398.66
2023-03-25T23:59:01.987Z,99387.09
